sensor_id;sensor_type;location;lat;lon;timestamp;P1;durP1;ratioP1;P2;durP2;ratioP2
63699;SDS011;49845;47.130;142.766;2023-05-10T00:01:10;4.40;;;2.25;;
63699;SDS011;49845;47.130;142.766;2023-05-10T00:03:40;6.78;;;2.58;;
63699;SDS011;49845;47.130;142.766;2023-05-10T00:06:11;3.65;;;2.25;;
63699;SDS011;49845;47.130;142.766;2023-05-10T00:08:43;3.60;;;2.22;;
63699;SDS011;49845;47.130;142.766;2023-05-10T00:11:14;4.05;;;2.22;;
63699;SDS011;49845;47.130;142.766;2023-05-10T00:13:47;4.05;;;2.38;;
63699;SDS011;49845;47.130;142.766;2023-05-10T00:16:17;2.33;;;1.70;;
63699;SDS011;49845;47.130;142.766;2023-05-10T00:18:48;3.08;;;1.98;;
63699;SDS011;49845;47.130;142.766;2023-05-10T00:21:18;2.78;;;1.70;;
63699;SDS011;49845;47.130;142.766;2023-05-10T00:23:50;2.85;;;1.60;;
63699;SDS011;49845;47.130;142.766;2023-05-10T00:26:21;2.72;;;1.40;;
63699;SDS011;49845;47.130;142.766;2023-05-10T00:28:51;4.78;;;1.80;;
63699;SDS011;49845;47.130;142.766;2023-05-10T00:31:22;2.67;;;1.20;;
63699;SDS011;49845;47.130;142.766;2023-05-10T00:33:55;2.42;;;1.30;;
63699;SDS011;49845;47.130;142.766;2023-05-10T00:36:25;1.60;;;1.23;;
63699;SDS011;49845;47.130;142.766;2023-05-10T00:38:58;3.30;;;1.02;;
63699;SDS011;49845;47.130;142.766;2023-05-10T00:41:28;1.67;;;1.10;;
63699;SDS011;49845;47.130;142.766;2023-05-10T00:44:00;1.80;;;1.00;;
63699;SDS011;49845;47.130;142.766;2023-05-10T00:46:30;1.63;;;0.98;;
63699;SDS011;49845;47.130;142.766;2023-05-10T00:49:01;1.58;;;1.00;;
63699;SDS011;49845;47.130;142.766;2023-05-10T00:51:32;2.60;;;1.05;;
63699;SDS011;49845;47.130;142.766;2023-05-10T00:54:05;3.05;;;1.00;;
63699;SDS011;49845;47.130;142.766;2023-05-10T00:56:36;2.28;;;1.23;;
63699;SDS011;49845;47.130;142.766;2023-05-10T00:59:06;1.73;;;1.10;;
63699;SDS011;49845;47.130;142.766;2023-05-10T01:01:38;1.40;;;1.10;;
63699;SDS011;49845;47.130;142.766;2023-05-10T01:04:08;2.63;;;1.50;;
63699;SDS011;49845;47.130;142.766;2023-05-10T01:06:40;1.95;;;1.48;;
63699;SDS011;49845;47.130;142.766;2023-05-10T01:09:12;2.75;;;1.27;;
63699;SDS011;49845;47.130;142.766;2023-05-10T01:11:43;2.15;;;1.35;;
63699;SDS011;49845;47.130;142.766;2023-05-10T01:14:13;2.00;;;1.40;;
63699;SDS011;49845;47.130;142.766;2023-05-10T01:16:47;1.75;;;1.20;;
63699;SDS011;49845;47.130;142.766;2023-05-10T01:19:21;2.95;;;1.30;;
63699;SDS011;49845;47.130;142.766;2023-05-10T01:21:55;2.80;;;0.93;;
63699;SDS011;49845;47.130;142.766;2023-05-10T01:24:40;2.22;;;1.30;;
63699;SDS011;49845;47.130;142.766;2023-05-10T01:27:43;1.90;;;1.55;;
63699;SDS011;49845;47.130;142.766;2023-05-10T01:30:50;1.35;;;1.15;;
63699;SDS011;49845;47.130;142.766;2023-05-10T01:33:40;3.55;;;1.58;;
63699;SDS011;49845;47.130;142.766;2023-05-10T01:36:18;3.50;;;1.67;;
63699;SDS011;49845;47.130;142.766;2023-05-10T01:38:56;1.90;;;1.30;;
63699;SDS011;49845;47.130;142.766;2023-05-10T01:41:36;1.85;;;1.20;;
63699;SDS011;49845;47.130;142.766;2023-05-10T01:44:16;2.25;;;1.17;;
63699;SDS011;49845;47.130;142.766;2023-05-10T01:46:53;2.38;;;1.55;;
63699;SDS011;49845;47.130;142.766;2023-05-10T01:49:34;1.90;;;1.20;;
63699;SDS011;49845;47.130;142.766;2023-05-10T01:52:11;1.75;;;1.33;;
63699;SDS011;49845;47.130;142.766;2023-05-10T01:54:48;3.00;;;1.42;;
63699;SDS011;49845;47.130;142.766;2023-05-10T01:57:24;2.70;;;1.38;;
63699;SDS011;49845;47.130;142.766;2023-05-10T01:59:57;4.13;;;1.80;;
63699;SDS011;49845;47.130;142.766;2023-05-10T02:02:28;1.98;;;1.40;;
63699;SDS011;49845;47.130;142.766;2023-05-10T02:05:04;3.75;;;1.60;;
63699;SDS011;49845;47.130;142.766;2023-05-10T02:07:36;3.08;;;1.63;;
63699;SDS011;49845;47.130;142.766;2023-05-10T02:10:07;5.07;;;1.30;;
63699;SDS011;49845;47.130;142.766;2023-05-10T02:12:41;2.55;;;1.52;;
63699;SDS011;49845;47.130;142.766;2023-05-10T02:15:14;3.30;;;1.70;;
63699;SDS011;49845;47.130;142.766;2023-05-10T02:17:48;3.42;;;1.80;;
63699;SDS011;49845;47.130;142.766;2023-05-10T02:20:21;5.47;;;2.20;;
63699;SDS011;49845;47.130;142.766;2023-05-10T02:22:53;3.83;;;2.17;;
63699;SDS011;49845;47.130;142.766;2023-05-10T02:25:26;4.40;;;2.35;;
63699;SDS011;49845;47.130;142.766;2023-05-10T02:27:58;5.90;;;3.08;;
63699;SDS011;49845;47.130;142.766;2023-05-10T02:30:32;4.50;;;2.85;;
63699;SDS011;49845;47.130;142.766;2023-05-10T02:33:04;6.80;;;3.00;;
63699;SDS011;49845;47.130;142.766;2023-05-10T02:35:37;9.32;;;3.72;;
63699;SDS011;49845;47.130;142.766;2023-05-10T02:38:08;8.70;;;3.75;;
63699;SDS011;49845;47.130;142.766;2023-05-10T02:40:41;12.13;;;4.55;;
63699;SDS011;49845;47.130;142.766;2023-05-10T02:43:12;6.10;;;3.20;;
63699;SDS011;49845;47.130;142.766;2023-05-10T02:45:47;10.05;;;3.90;;
63699;SDS011;49845;47.130;142.766;2023-05-10T02:48:18;7.00;;;3.38;;
63699;SDS011;49845;47.130;142.766;2023-05-10T02:50:50;5.13;;;3.13;;
63699;SDS011;49845;47.130;142.766;2023-05-10T02:53:28;6.60;;;3.75;;
63699;SDS011;49845;47.130;142.766;2023-05-10T02:56:04;7.07;;;4.15;;
63699;SDS011;49845;47.130;142.766;2023-05-10T02:58:37;7.72;;;4.28;;
63699;SDS011;49845;47.130;142.766;2023-05-10T03:01:08;8.90;;;4.53;;
63699;SDS011;49845;47.130;142.766;2023-05-10T03:03:38;7.70;;;4.22;;
63699;SDS011;49845;47.130;142.766;2023-05-10T03:06:11;11.00;;;4.25;;
63699;SDS011;49845;47.130;142.766;2023-05-10T03:08:41;10.20;;;3.75;;
63699;SDS011;49845;47.130;142.766;2023-05-10T03:11:19;7.22;;;3.38;;
63699;SDS011;49845;47.130;142.766;2023-05-10T03:14:09;7.70;;;3.10;;
63699;SDS011;49845;47.130;142.766;2023-05-10T03:16:46;9.02;;;4.30;;
63699;SDS011;49845;47.130;142.766;2023-05-10T03:19:27;6.57;;;3.85;;
63699;SDS011;49845;47.130;142.766;2023-05-10T03:22:13;10.75;;;5.13;;
63699;SDS011;49845;47.130;142.766;2023-05-10T03:24:55;10.88;;;4.80;;
63699;SDS011;49845;47.130;142.766;2023-05-10T03:27:28;9.18;;;4.00;;
63699;SDS011;49845;47.130;142.766;2023-05-10T03:30:01;9.68;;;4.55;;
63699;SDS011;49845;47.130;142.766;2023-05-10T03:32:34;7.68;;;4.07;;
63699;SDS011;49845;47.130;142.766;2023-05-10T03:35:06;5.88;;;3.78;;
63699;SDS011;49845;47.130;142.766;2023-05-10T03:37:39;6.30;;;3.70;;
63699;SDS011;49845;47.130;142.766;2023-05-10T03:40:10;7.72;;;4.15;;
63699;SDS011;49845;47.130;142.766;2023-05-10T03:42:43;7.28;;;3.95;;
63699;SDS011;49845;47.130;142.766;2023-05-10T03:45:15;4.88;;;2.85;;
63699;SDS011;49845;47.130;142.766;2023-05-10T03:47:46;6.18;;;3.20;;
63699;SDS011;49845;47.130;142.766;2023-05-10T03:50:18;10.40;;;3.30;;
63699;SDS011;49845;47.130;142.766;2023-05-10T03:53:02;9.65;;;4.00;;
63699;SDS011;49845;47.130;142.766;2023-05-10T03:55:41;7.47;;;3.75;;
63699;SDS011;49845;47.130;142.766;2023-05-10T03:58:12;6.68;;;3.50;;
63699;SDS011;49845;47.130;142.766;2023-05-10T04:00:43;8.02;;;3.83;;
63699;SDS011;49845;47.130;142.766;2023-05-10T04:03:14;5.90;;;3.35;;
63699;SDS011;49845;47.130;142.766;2023-05-10T04:05:45;4.88;;;2.60;;
63699;SDS011;49845;47.130;142.766;2023-05-10T04:08:17;5.68;;;3.35;;
63699;SDS011;49845;47.130;142.766;2023-05-10T04:10:48;6.55;;;3.60;;
63699;SDS011;49845;47.130;142.766;2023-05-10T04:13:18;7.10;;;3.30;;
63699;SDS011;49845;47.130;142.766;2023-05-10T04:15:49;5.22;;;2.72;;
63699;SDS011;49845;47.130;142.766;2023-05-10T04:18:19;4.07;;;2.92;;
63699;SDS011;49845;47.130;142.766;2023-05-10T04:20:50;5.00;;;3.00;;
63699;SDS011;49845;47.130;142.766;2023-05-10T04:23:22;7.43;;;3.30;;
63699;SDS011;49845;47.130;142.766;2023-05-10T04:25:52;5.75;;;3.17;;
63699;SDS011;49845;47.130;142.766;2023-05-10T04:28:28;5.28;;;2.85;;
63699;SDS011;49845;47.130;142.766;2023-05-10T04:31:02;6.18;;;3.03;;
63699;SDS011;49845;47.130;142.766;2023-05-10T04:33:33;5.45;;;2.72;;
63699;SDS011;49845;47.130;142.766;2023-05-10T04:36:04;6.50;;;3.17;;
63699;SDS011;49845;47.130;142.766;2023-05-10T04:38:36;7.80;;;3.53;;
63699;SDS011;49845;47.130;142.766;2023-05-10T04:41:07;4.25;;;3.28;;
63699;SDS011;49845;47.130;142.766;2023-05-10T04:43:39;7.35;;;3.33;;
63699;SDS011;49845;47.130;142.766;2023-05-10T04:46:09;9.75;;;3.90;;
63699;SDS011;49845;47.130;142.766;2023-05-10T04:48:39;4.28;;;2.30;;
63699;SDS011;49845;47.130;142.766;2023-05-10T04:51:10;3.03;;;2.22;;
63699;SDS011;49845;47.130;142.766;2023-05-10T04:53:42;5.63;;;2.70;;
63699;SDS011;49845;47.130;142.766;2023-05-10T04:59:00;6.28;;;2.47;;
63699;SDS011;49845;47.130;142.766;2023-05-10T05:01:31;5.38;;;2.83;;
63699;SDS011;49845;47.130;142.766;2023-05-10T05:04:01;5.95;;;3.30;;
63699;SDS011;49845;47.130;142.766;2023-05-10T05:06:32;5.35;;;3.42;;
63699;SDS011;49845;47.130;142.766;2023-05-10T05:09:04;5.20;;;3.10;;
63699;SDS011;49845;47.130;142.766;2023-05-10T05:11:35;7.70;;;4.43;;
63699;SDS011;49845;47.130;142.766;2023-05-10T05:14:05;5.80;;;3.33;;
63699;SDS011;49845;47.130;142.766;2023-05-10T05:16:36;5.93;;;3.83;;
63699;SDS011;49845;47.130;142.766;2023-05-10T05:19:07;5.22;;;3.22;;
63699;SDS011;49845;47.130;142.766;2023-05-10T05:21:37;6.00;;;2.88;;
63699;SDS011;49845;47.130;142.766;2023-05-10T05:24:09;5.00;;;2.83;;
63699;SDS011;49845;47.130;142.766;2023-05-10T05:26:40;4.85;;;2.95;;
63699;SDS011;49845;47.130;142.766;2023-05-10T05:29:11;5.10;;;2.58;;
63699;SDS011;49845;47.130;142.766;2023-05-10T05:31:41;5.20;;;3.20;;
63699;SDS011;49845;47.130;142.766;2023-05-10T05:34:12;5.95;;;3.35;;
63699;SDS011;49845;47.130;142.766;2023-05-10T05:36:42;8.48;;;3.78;;
63699;SDS011;49845;47.130;142.766;2023-05-10T05:39:14;4.53;;;2.80;;
63699;SDS011;49845;47.130;142.766;2023-05-10T05:41:45;6.97;;;3.25;;
63699;SDS011;49845;47.130;142.766;2023-05-10T05:44:15;6.70;;;2.78;;
63699;SDS011;49845;47.130;142.766;2023-05-10T05:46:46;5.60;;;3.33;;
63699;SDS011;49845;47.130;142.766;2023-05-10T05:49:16;5.60;;;2.75;;
63699;SDS011;49845;47.130;142.766;2023-05-10T05:51:47;7.47;;;3.42;;
63699;SDS011;49845;47.130;142.766;2023-05-10T05:54:20;6.57;;;2.85;;
63699;SDS011;49845;47.130;142.766;2023-05-10T05:56:50;6.03;;;3.00;;
63699;SDS011;49845;47.130;142.766;2023-05-10T05:59:25;6.60;;;4.15;;
63699;SDS011;49845;47.130;142.766;2023-05-10T06:01:56;7.25;;;3.10;;
63699;SDS011;49845;47.130;142.766;2023-05-10T06:04:28;7.45;;;3.30;;
63699;SDS011;49845;47.130;142.766;2023-05-10T06:06:59;5.25;;;2.97;;
63699;SDS011;49845;47.130;142.766;2023-05-10T06:09:31;7.28;;;2.90;;
63699;SDS011;49845;47.130;142.766;2023-05-10T06:12:01;5.57;;;2.92;;
63699;SDS011;49845;47.130;142.766;2023-05-10T06:14:32;12.43;;;4.50;;
63699;SDS011;49845;47.130;142.766;2023-05-10T06:17:03;14.35;;;4.88;;
63699;SDS011;49845;47.130;142.766;2023-05-10T06:19:34;17.42;;;6.55;;
63699;SDS011;49845;47.130;142.766;2023-05-10T06:22:05;5.55;;;2.88;;
63699;SDS011;49845;47.130;142.766;2023-05-10T06:24:37;6.82;;;3.45;;
63699;SDS011;49845;47.130;142.766;2023-05-10T06:27:07;4.00;;;2.67;;
63699;SDS011;49845;47.130;142.766;2023-05-10T06:29:38;5.35;;;2.50;;
63699;SDS011;49845;47.130;142.766;2023-05-10T06:32:09;4.75;;;2.83;;
63699;SDS011;49845;47.130;142.766;2023-05-10T06:34:39;6.95;;;2.80;;
63699;SDS011;49845;47.130;142.766;2023-05-10T06:37:11;3.60;;;2.45;;
63699;SDS011;49845;47.130;142.766;2023-05-10T06:39:44;5.07;;;2.80;;
63699;SDS011;49845;47.130;142.766;2023-05-10T06:42:16;6.30;;;3.13;;
63699;SDS011;49845;47.130;142.766;2023-05-10T06:45:00;6.70;;;3.10;;
63699;SDS011;49845;47.130;142.766;2023-05-10T06:47:32;4.35;;;2.30;;
63699;SDS011;49845;47.130;142.766;2023-05-10T06:50:05;6.05;;;3.25;;
63699;SDS011;49845;47.130;142.766;2023-05-10T06:52:42;7.70;;;3.20;;
63699;SDS011;49845;47.130;142.766;2023-05-10T06:55:15;4.40;;;3.20;;
63699;SDS011;49845;47.130;142.766;2023-05-10T06:57:48;5.32;;;2.50;;
63699;SDS011;49845;47.130;142.766;2023-05-10T07:00:20;3.55;;;2.30;;
63699;SDS011;49845;47.130;142.766;2023-05-10T07:02:52;4.93;;;2.70;;
63699;SDS011;49845;47.130;142.766;2023-05-10T07:05:24;5.40;;;2.38;;
63699;SDS011;49845;47.130;142.766;2023-05-10T07:07:57;3.40;;;2.53;;
63699;SDS011;49845;47.130;142.766;2023-05-10T07:10:32;3.67;;;2.30;;
63699;SDS011;49845;47.130;142.766;2023-05-10T07:13:03;5.00;;;2.50;;
63699;SDS011;49845;47.130;142.766;2023-05-10T07:15:36;4.97;;;2.50;;
63699;SDS011;49845;47.130;142.766;2023-05-10T07:18:15;3.78;;;2.40;;
63699;SDS011;49845;47.130;142.766;2023-05-10T07:20:47;2.92;;;2.03;;
63699;SDS011;49845;47.130;142.766;2023-05-10T07:23:18;4.20;;;2.58;;
63699;SDS011;49845;47.130;142.766;2023-05-10T07:25:51;5.97;;;2.63;;
63699;SDS011;49845;47.130;142.766;2023-05-10T07:28:23;5.00;;;2.60;;
63699;SDS011;49845;47.130;142.766;2023-05-10T07:30:58;3.10;;;2.30;;
63699;SDS011;49845;47.130;142.766;2023-05-10T07:33:29;4.53;;;2.40;;
63699;SDS011;49845;47.130;142.766;2023-05-10T07:36:01;3.55;;;2.55;;
63699;SDS011;49845;47.130;142.766;2023-05-10T07:38:34;5.50;;;2.40;;
63699;SDS011;49845;47.130;142.766;2023-05-10T07:41:14;5.63;;;1.90;;
63699;SDS011;49845;47.130;142.766;2023-05-10T07:44:06;5.40;;;2.05;;
63699;SDS011;49845;47.130;142.766;2023-05-10T07:46:38;4.43;;;2.83;;
63699;SDS011;49845;47.130;142.766;2023-05-10T07:49:10;4.35;;;2.17;;
63699;SDS011;49845;47.130;142.766;2023-05-10T07:51:41;2.42;;;1.73;;
63699;SDS011;49845;47.130;142.766;2023-05-10T07:54:13;4.22;;;2.10;;
63699;SDS011;49845;47.130;142.766;2023-05-10T07:56:47;3.45;;;1.90;;
63699;SDS011;49845;47.130;142.766;2023-05-10T07:59:19;4.13;;;2.28;;
63699;SDS011;49845;47.130;142.766;2023-05-10T08:01:51;7.43;;;2.28;;
63699;SDS011;49845;47.130;142.766;2023-05-10T08:04:22;4.30;;;2.40;;
63699;SDS011;49845;47.130;142.766;2023-05-10T08:06:54;7.10;;;3.17;;
63699;SDS011;49845;47.130;142.766;2023-05-10T08:09:26;4.75;;;2.53;;
63699;SDS011;49845;47.130;142.766;2023-05-10T08:11:59;2.85;;;1.88;;
63699;SDS011;49845;47.130;142.766;2023-05-10T08:14:30;4.38;;;2.13;;
63699;SDS011;49845;47.130;142.766;2023-05-10T08:17:01;4.00;;;2.20;;
63699;SDS011;49845;47.130;142.766;2023-05-10T08:19:33;5.38;;;2.58;;
63699;SDS011;49845;47.130;142.766;2023-05-10T08:22:04;6.28;;;2.65;;
63699;SDS011;49845;47.130;142.766;2023-05-10T08:24:36;6.72;;;3.10;;
63699;SDS011;49845;47.130;142.766;2023-05-10T08:27:11;8.25;;;3.30;;
63699;SDS011;49845;47.130;142.766;2023-05-10T08:29:42;6.13;;;3.13;;
63699;SDS011;49845;47.130;142.766;2023-05-10T08:32:16;7.30;;;3.42;;
63699;SDS011;49845;47.130;142.766;2023-05-10T08:34:48;7.45;;;3.08;;
63699;SDS011;49845;47.130;142.766;2023-05-10T08:37:19;6.47;;;3.45;;
63699;SDS011;49845;47.130;142.766;2023-05-10T08:39:51;6.55;;;3.70;;
63699;SDS011;49845;47.130;142.766;2023-05-10T08:42:24;9.10;;;3.58;;
63699;SDS011;49845;47.130;142.766;2023-05-10T08:44:59;6.93;;;3.20;;
63699;SDS011;49845;47.130;142.766;2023-05-10T08:47:31;6.50;;;3.40;;
63699;SDS011;49845;47.130;142.766;2023-05-10T08:50:03;5.00;;;3.25;;
63699;SDS011;49845;47.130;142.766;2023-05-10T08:52:37;6.80;;;3.80;;
63699;SDS011;49845;47.130;142.766;2023-05-10T08:55:10;7.55;;;3.78;;
63699;SDS011;49845;47.130;142.766;2023-05-10T08:57:44;9.18;;;3.55;;
63699;SDS011;49845;47.130;142.766;2023-05-10T09:00:16;7.40;;;4.05;;
63699;SDS011;49845;47.130;142.766;2023-05-10T09:03:02;6.75;;;3.95;;
63699;SDS011;49845;47.130;142.766;2023-05-10T09:05:36;9.00;;;4.68;;
63699;SDS011;49845;47.130;142.766;2023-05-10T09:08:07;8.68;;;4.63;;
63699;SDS011;49845;47.130;142.766;2023-05-10T09:10:39;9.57;;;4.60;;
63699;SDS011;49845;47.130;142.766;2023-05-10T09:13:17;8.07;;;4.22;;
63699;SDS011;49845;47.130;142.766;2023-05-10T09:15:49;5.40;;;3.15;;
63699;SDS011;49845;47.130;142.766;2023-05-10T09:18:21;7.65;;;4.43;;
63699;SDS011;49845;47.130;142.766;2023-05-10T09:20:54;8.32;;;4.30;;
63699;SDS011;49845;47.130;142.766;2023-05-10T09:23:25;9.13;;;4.38;;
63699;SDS011;49845;47.130;142.766;2023-05-10T09:26:03;6.32;;;3.83;;
63699;SDS011;49845;47.130;142.766;2023-05-10T09:28:50;6.60;;;3.67;;
63699;SDS011;49845;47.130;142.766;2023-05-10T09:31:22;6.82;;;4.03;;
63699;SDS011;49845;47.130;142.766;2023-05-10T09:33:55;7.38;;;4.15;;
63699;SDS011;49845;47.130;142.766;2023-05-10T09:36:32;8.07;;;4.18;;
63699;SDS011;49845;47.130;142.766;2023-05-10T09:39:04;7.60;;;3.88;;
63699;SDS011;49845;47.130;142.766;2023-05-10T09:41:35;7.45;;;4.47;;
63699;SDS011;49845;47.130;142.766;2023-05-10T09:44:08;8.23;;;4.22;;
63699;SDS011;49845;47.130;142.766;2023-05-10T09:46:40;9.32;;;5.40;;
63699;SDS011;49845;47.130;142.766;2023-05-10T09:49:14;9.27;;;5.25;;
63699;SDS011;49845;47.130;142.766;2023-05-10T09:51:46;9.18;;;5.10;;
63699;SDS011;49845;47.130;142.766;2023-05-10T09:54:17;11.10;;;5.43;;
63699;SDS011;49845;47.130;142.766;2023-05-10T09:56:49;9.15;;;5.20;;
63699;SDS011;49845;47.130;142.766;2023-05-10T09:59:22;11.13;;;5.55;;
63699;SDS011;49845;47.130;142.766;2023-05-10T10:01:56;10.38;;;4.85;;
63699;SDS011;49845;47.130;142.766;2023-05-10T10:04:28;12.32;;;5.75;;
63699;SDS011;49845;47.130;142.766;2023-05-10T10:07:01;8.65;;;5.18;;
63699;SDS011;49845;47.130;142.766;2023-05-10T10:09:34;10.93;;;5.15;;
63699;SDS011;49845;47.130;142.766;2023-05-10T10:12:06;10.07;;;5.57;;
63699;SDS011;49845;47.130;142.766;2023-05-10T10:14:39;10.18;;;5.55;;
63699;SDS011;49845;47.130;142.766;2023-05-10T10:17:11;9.50;;;5.13;;
63699;SDS011;49845;47.130;142.766;2023-05-10T10:19:43;9.13;;;5.57;;
63699;SDS011;49845;47.130;142.766;2023-05-10T10:22:15;11.68;;;5.55;;
63699;SDS011;49845;47.130;142.766;2023-05-10T10:24:48;13.00;;;6.05;;
63699;SDS011;49845;47.130;142.766;2023-05-10T10:27:21;11.65;;;5.93;;
63699;SDS011;49845;47.130;142.766;2023-05-10T10:30:04;11.95;;;6.55;;
63699;SDS011;49845;47.130;142.766;2023-05-10T10:32:49;10.20;;;5.65;;
63699;SDS011;49845;47.130;142.766;2023-05-10T10:35:54;12.45;;;6.07;;
63699;SDS011;49845;47.130;142.766;2023-05-10T10:38:36;10.05;;;5.63;;
63699;SDS011;49845;47.130;142.766;2023-05-10T10:41:09;9.83;;;5.90;;
63699;SDS011;49845;47.130;142.766;2023-05-10T10:47:10;10.63;;;4.97;;
63699;SDS011;49845;47.130;142.766;2023-05-10T10:50:03;12.10;;;6.00;;
63699;SDS011;49845;47.130;142.766;2023-05-10T10:52:37;11.70;;;6.03;;
63699;SDS011;49845;47.130;142.766;2023-05-10T10:55:10;12.73;;;6.47;;
63699;SDS011;49845;47.130;142.766;2023-05-10T10:57:44;15.27;;;6.53;;
63699;SDS011;49845;47.130;142.766;2023-05-10T11:00:28;13.57;;;7.25;;
63699;SDS011;49845;47.130;142.766;2023-05-10T11:03:04;11.82;;;6.22;;
63699;SDS011;49845;47.130;142.766;2023-05-10T11:05:40;12.05;;;6.15;;
63699;SDS011;49845;47.130;142.766;2023-05-10T11:08:13;11.70;;;6.63;;
63699;SDS011;49845;47.130;142.766;2023-05-10T11:10:50;13.82;;;7.10;;
63699;SDS011;49845;47.130;142.766;2023-05-10T11:13:27;13.90;;;7.22;;
63699;SDS011;49845;47.130;142.766;2023-05-10T11:16:09;12.55;;;5.95;;
63699;SDS011;49845;47.130;142.766;2023-05-10T11:18:56;11.05;;;7.03;;
63699;SDS011;49845;47.130;142.766;2023-05-10T11:21:30;15.80;;;7.03;;
63699;SDS011;49845;47.130;142.766;2023-05-10T11:24:08;12.02;;;6.78;;
63699;SDS011;49845;47.130;142.766;2023-05-10T11:26:44;15.63;;;7.47;;
63699;SDS011;49845;47.130;142.766;2023-05-10T11:29:15;14.07;;;7.03;;
63699;SDS011;49845;47.130;142.766;2023-05-10T11:31:47;14.80;;;7.65;;
63699;SDS011;49845;47.130;142.766;2023-05-10T11:34:28;11.50;;;6.25;;
63699;SDS011;49845;47.130;142.766;2023-05-10T11:37:01;14.60;;;6.45;;
63699;SDS011;49845;47.130;142.766;2023-05-10T11:39:33;18.55;;;9.18;;
63699;SDS011;49845;47.130;142.766;2023-05-10T11:42:05;15.85;;;7.68;;
63699;SDS011;49845;47.130;142.766;2023-05-10T11:44:37;13.43;;;7.72;;
63699;SDS011;49845;47.130;142.766;2023-05-10T11:47:09;18.48;;;7.68;;
63699;SDS011;49845;47.130;142.766;2023-05-10T11:49:52;11.40;;;7.10;;
63699;SDS011;49845;47.130;142.766;2023-05-10T11:52:24;12.60;;;6.30;;
63699;SDS011;49845;47.130;142.766;2023-05-10T11:54:59;18.45;;;7.78;;
63699;SDS011;49845;47.130;142.766;2023-05-10T11:57:31;15.30;;;6.78;;
63699;SDS011;49845;47.130;142.766;2023-05-10T12:00:07;14.30;;;7.45;;
63699;SDS011;49845;47.130;142.766;2023-05-10T12:02:40;18.05;;;7.47;;
63699;SDS011;49845;47.130;142.766;2023-05-10T12:05:14;13.10;;;6.95;;
63699;SDS011;49845;47.130;142.766;2023-05-10T12:07:47;12.27;;;6.60;;
63699;SDS011;49845;47.130;142.766;2023-05-10T12:10:25;14.30;;;7.28;;
63699;SDS011;49845;47.130;142.766;2023-05-10T12:12:57;18.17;;;8.52;;
63699;SDS011;49845;47.130;142.766;2023-05-10T12:15:44;16.38;;;8.02;;
63699;SDS011;49845;47.130;142.766;2023-05-10T12:18:22;15.43;;;8.10;;
63699;SDS011;49845;47.130;142.766;2023-05-10T12:21:04;16.73;;;8.07;;
63699;SDS011;49845;47.130;142.766;2023-05-10T12:23:35;13.73;;;7.70;;
63699;SDS011;49845;47.130;142.766;2023-05-10T12:26:06;14.15;;;6.57;;
63699;SDS011;49845;47.130;142.766;2023-05-10T12:28:39;13.20;;;6.45;;
63699;SDS011;49845;47.130;142.766;2023-05-10T12:31:10;18.33;;;7.18;;
63699;SDS011;49845;47.130;142.766;2023-05-10T12:33:41;17.42;;;7.07;;
63699;SDS011;49845;47.130;142.766;2023-05-10T12:36:15;13.80;;;7.50;;
63699;SDS011;49845;47.130;142.766;2023-05-10T12:38:46;14.82;;;6.35;;
63699;SDS011;49845;47.130;142.766;2023-05-10T12:41:17;16.45;;;8.18;;
63699;SDS011;49845;47.130;142.766;2023-05-10T12:43:49;19.60;;;8.50;;
63699;SDS011;49845;47.130;142.766;2023-05-10T12:46:20;20.17;;;8.52;;
63699;SDS011;49845;47.130;142.766;2023-05-10T12:48:52;25.00;;;9.50;;
63699;SDS011;49845;47.130;142.766;2023-05-10T12:51:36;19.67;;;10.27;;
63699;SDS011;49845;47.130;142.766;2023-05-10T12:54:07;24.27;;;9.23;;
63699;SDS011;49845;47.130;142.766;2023-05-10T12:56:37;22.90;;;8.82;;
63699;SDS011;49845;47.130;142.766;2023-05-10T12:59:08;16.58;;;7.38;;
63699;SDS011;49845;47.130;142.766;2023-05-10T13:01:43;16.13;;;8.35;;
63699;SDS011;49845;47.130;142.766;2023-05-10T13:04:13;14.52;;;6.25;;
63699;SDS011;49845;47.130;142.766;2023-05-10T13:06:46;14.68;;;7.28;;
63699;SDS011;49845;47.130;142.766;2023-05-10T13:09:17;12.15;;;6.20;;
63699;SDS011;49845;47.130;142.766;2023-05-10T13:11:48;13.88;;;6.80;;
63699;SDS011;49845;47.130;142.766;2023-05-10T13:14:21;14.02;;;6.50;;
63699;SDS011;49845;47.130;142.766;2023-05-10T13:16:51;14.40;;;8.07;;
63699;SDS011;49845;47.130;142.766;2023-05-10T13:19:22;17.98;;;8.10;;
63699;SDS011;49845;47.130;142.766;2023-05-10T13:21:57;15.07;;;8.07;;
63699;SDS011;49845;47.130;142.766;2023-05-10T13:24:29;15.63;;;7.35;;
63699;SDS011;49845;47.130;142.766;2023-05-10T13:27:00;16.75;;;7.10;;
63699;SDS011;49845;47.130;142.766;2023-05-10T13:29:30;17.38;;;7.57;;
63699;SDS011;49845;47.130;142.766;2023-05-10T13:32:04;15.73;;;7.65;;
63699;SDS011;49845;47.130;142.766;2023-05-10T13:34:35;17.90;;;6.90;;
63699;SDS011;49845;47.130;142.766;2023-05-10T13:37:07;20.20;;;8.68;;
63699;SDS011;49845;47.130;142.766;2023-05-10T13:39:43;17.20;;;7.38;;
63699;SDS011;49845;47.130;142.766;2023-05-10T13:42:16;16.67;;;7.97;;
63699;SDS011;49845;47.130;142.766;2023-05-10T13:44:47;17.45;;;8.13;;
63699;SDS011;49845;47.130;142.766;2023-05-10T13:47:20;14.60;;;8.05;;
63699;SDS011;49845;47.130;142.766;2023-05-10T13:49:51;18.52;;;9.10;;
63699;SDS011;49845;47.130;142.766;2023-05-10T13:52:23;21.00;;;8.90;;
63699;SDS011;49845;47.130;142.766;2023-05-10T13:54:55;17.23;;;9.13;;
63699;SDS011;49845;47.130;142.766;2023-05-10T13:57:26;16.55;;;8.80;;
63699;SDS011;49845;47.130;142.766;2023-05-10T13:59:57;19.98;;;9.70;;
63699;SDS011;49845;47.130;142.766;2023-05-10T14:02:28;15.73;;;9.15;;
63699;SDS011;49845;47.130;142.766;2023-05-10T14:05:01;22.02;;;9.05;;
63699;SDS011;49845;47.130;142.766;2023-05-10T14:07:33;18.52;;;9.77;;
63699;SDS011;49845;47.130;142.766;2023-05-10T14:10:04;19.80;;;10.07;;
63699;SDS011;49845;47.130;142.766;2023-05-10T14:12:35;22.00;;;9.85;;
63699;SDS011;49845;47.130;142.766;2023-05-10T14:15:06;18.13;;;7.65;;
63699;SDS011;49845;47.130;142.766;2023-05-10T14:17:39;14.27;;;7.03;;
63699;SDS011;49845;47.130;142.766;2023-05-10T14:20:09;18.83;;;8.40;;
63699;SDS011;49845;47.130;142.766;2023-05-10T14:22:42;18.40;;;7.00;;
63699;SDS011;49845;47.130;142.766;2023-05-10T14:25:13;16.40;;;8.02;;
63699;SDS011;49845;47.130;142.766;2023-05-10T14:27:45;20.98;;;8.80;;
63699;SDS011;49845;47.130;142.766;2023-05-10T14:30:15;16.88;;;9.05;;
63699;SDS011;49845;47.130;142.766;2023-05-10T14:32:48;21.15;;;9.70;;
63699;SDS011;49845;47.130;142.766;2023-05-10T14:35:19;24.38;;;10.13;;
63699;SDS011;49845;47.130;142.766;2023-05-10T14:37:53;17.35;;;9.95;;
63699;SDS011;49845;47.130;142.766;2023-05-10T14:40:24;15.05;;;8.70;;
63699;SDS011;49845;47.130;142.766;2023-05-10T14:42:54;17.40;;;8.52;;
63699;SDS011;49845;47.130;142.766;2023-05-10T14:45:25;17.85;;;8.98;;
63699;SDS011;49845;47.130;142.766;2023-05-10T14:47:56;19.60;;;9.00;;
63699;SDS011;49845;47.130;142.766;2023-05-10T14:50:27;16.83;;;8.32;;
63699;SDS011;49845;47.130;142.766;2023-05-10T14:53:04;19.25;;;9.13;;
63699;SDS011;49845;47.130;142.766;2023-05-10T14:55:35;20.75;;;8.23;;
63699;SDS011;49845;47.130;142.766;2023-05-10T14:58:05;19.95;;;8.77;;